createdAt,value
2018-11-28T00:00:38.447Z,18.40
2018-11-28T00:03:07.979Z,15.97
2018-11-28T00:05:36.599Z,17.93
2018-11-28T00:08:05.215Z,15.43
2018-11-28T00:10:33.795Z,14.03
2018-11-28T00:13:02.293Z,15.03
2018-11-28T00:15:30.792Z,15.33
2018-11-28T00:17:59.290Z,16.73
2018-11-28T00:20:27.843Z,16.20
2018-11-28T00:22:56.332Z,16.70
2018-11-28T00:25:25.950Z,15.73
2018-11-28T00:27:54.531Z,16.67
2018-11-28T00:30:24.213Z,16.30
2018-11-28T00:32:52.885Z,16.20
2018-11-28T00:35:22.634Z,15.20
2018-11-28T00:37:51.654Z,15.13
2018-11-28T00:40:21.522Z,15.33
2018-11-28T00:42:50.034Z,17.17
2018-11-28T00:45:22.189Z,16.23
2018-11-28T00:47:50.872Z,16.07
2018-11-28T00:50:24.413Z,16.27
2018-11-28T00:52:54.050Z,16.60
2018-11-28T00:55:22.634Z,16.00
2018-11-28T00:57:51.215Z,15.37
2018-11-28T01:00:23.287Z,15.23
2018-11-28T01:02:51.878Z,16.23
2018-11-28T01:05:20.490Z,17.50
2018-11-28T01:07:51.464Z,17.27
2018-11-28T01:10:21.361Z,18.10
2018-11-28T01:12:50.883Z,16.30
2018-11-28T01:15:20.836Z,16.20
2018-11-28T01:17:49.353Z,16.50
2018-11-28T01:20:19.397Z,16.30
2018-11-28T01:22:48.007Z,17.90
2018-11-28T01:25:18.461Z,17.17
2018-11-28T01:27:47.018Z,16.37
2018-11-28T01:30:16.622Z,16.27
2018-11-28T01:32:45.645Z,16.57
2018-11-28T01:35:15.356Z,18.60
2018-11-28T01:37:44.027Z,17.53
2018-11-28T01:40:18.578Z,16.73
2018-11-28T01:42:47.103Z,16.20
2018-11-28T01:45:16.740Z,16.40
2018-11-28T01:47:45.532Z,17.80
2018-11-28T01:50:15.058Z,17.27
2018-11-28T01:52:43.558Z,15.77
2018-11-28T01:55:13.191Z,17.60
2018-11-28T01:57:41.753Z,17.93
2018-11-28T02:00:14.005Z,17.07
2018-11-28T02:02:42.546Z,16.67
2018-11-28T02:05:11.860Z,16.83
2018-11-28T02:07:40.445Z,17.97
2018-11-28T02:10:16.104Z,16.87
2018-11-28T02:12:44.800Z,17.37
2018-11-28T02:15:17.164Z,16.33
2018-11-28T02:17:45.729Z,17.67
2018-11-28T02:20:16.904Z,16.80
2018-11-28T02:22:45.874Z,17.10
2018-11-28T02:25:16.443Z,16.80
2018-11-28T02:27:45.445Z,15.77
2018-11-28T02:30:15.100Z,16.77
2018-11-28T02:32:43.996Z,16.23
2018-11-28T02:35:13.533Z,18.30
2018-11-28T02:37:42.067Z,17.00
2018-11-28T02:40:15.815Z,16.30
2018-11-28T02:42:44.625Z,15.80
2018-11-28T02:45:17.002Z,17.00
2018-11-28T02:47:45.628Z,17.80
2018-11-28T02:50:14.257Z,16.80
2018-11-28T02:52:42.714Z,16.80
2018-11-28T02:55:15.126Z,16.17
2018-11-28T02:57:45.813Z,17.90
2018-11-28T03:00:29.207Z,17.80
2018-11-28T03:02:57.757Z,16.27
2018-11-28T03:05:26.239Z,16.97
2018-11-28T03:07:54.704Z,17.97
2018-11-28T03:10:23.487Z,17.10
2018-11-28T03:12:52.020Z,17.60
2018-11-28T03:15:27.050Z,16.43
2018-11-28T03:17:55.542Z,17.57
2018-11-28T03:20:24.125Z,16.63
2018-11-28T03:22:52.675Z,16.40
2018-11-28T03:25:21.142Z,16.67
2018-11-28T03:27:50.000Z,16.40
2018-11-28T03:30:18.547Z,17.67
2018-11-28T03:32:47.030Z,17.57
2018-11-28T03:35:16.223Z,16.27
2018-11-28T03:37:44.809Z,16.03
2018-11-28T03:40:13.554Z,15.90
2018-11-28T03:42:42.451Z,17.27
2018-11-28T03:45:13.110Z,17.43
2018-11-28T03:47:42.280Z,17.87
2018-11-28T03:50:11.918Z,16.30
2018-11-28T03:52:40.462Z,18.97
2018-11-28T03:55:11.326Z,17.87
2018-11-28T03:57:39.819Z,17.70
2018-11-28T04:00:13.476Z,17.43
2018-11-28T04:02:41.990Z,16.20
2018-11-28T04:05:10.773Z,15.70
2018-11-28T04:07:39.305Z,18.40
2018-11-28T04:10:11.830Z,18.07
2018-11-28T04:12:40.935Z,17.73
2018-11-28T04:15:19.466Z,18.27
2018-11-28T04:17:48.063Z,16.30
2018-11-28T04:20:17.528Z,17.90
2018-11-28T04:22:46.045Z,17.73
2018-11-28T04:25:15.427Z,15.60
2018-11-28T04:27:43.927Z,17.10
2018-11-28T04:30:15.776Z,18.27
2018-11-28T04:32:44.307Z,16.07
2018-11-28T04:35:13.861Z,16.77
2018-11-28T04:37:43.142Z,17.33
2018-11-28T04:40:17.703Z,17.83
2018-11-28T04:42:46.840Z,16.73
2018-11-28T04:45:17.492Z,18.77
2018-11-28T04:47:45.998Z,17.50
2018-11-28T04:50:14.482Z,18.30
2018-11-28T04:52:43.007Z,18.37
2018-11-28T04:55:13.504Z,18.90
2018-11-28T04:57:42.016Z,18.77
2018-11-28T05:00:13.583Z,19.13
2018-11-28T05:02:42.123Z,18.23
2018-11-28T05:05:11.194Z,18.40
2018-11-28T05:07:40.415Z,19.17
2018-11-28T05:10:16.372Z,18.00
2018-11-28T05:12:44.869Z,19.10
2018-11-28T05:15:17.320Z,19.97
2018-11-28T05:17:47.850Z,18.73
2018-11-28T05:20:19.496Z,17.10
2018-11-28T05:22:48.022Z,16.57
2018-11-28T05:25:17.466Z,19.43
2018-11-28T05:27:46.739Z,17.27
2018-11-28T05:30:18.244Z,19.27
2018-11-28T05:32:46.766Z,18.57
2018-11-28T05:35:20.659Z,19.43
2018-11-28T05:37:49.383Z,19.90
2018-11-28T05:40:23.129Z,19.13
2018-11-28T05:42:51.770Z,18.63
2018-11-28T05:45:20.462Z,19.00
2018-11-28T05:47:49.032Z,19.07
2018-11-28T05:50:19.467Z,18.40
2018-11-28T05:52:48.012Z,19.07
2018-11-28T05:55:17.481Z,19.60
2018-11-28T05:57:46.021Z,18.77
2018-11-28T06:00:27.595Z,18.77
2018-11-28T06:02:56.082Z,19.33
2018-11-28T06:05:24.543Z,19.00
2018-11-28T06:07:53.059Z,18.17
2018-11-28T06:10:21.693Z,18.57
2018-11-28T06:12:50.169Z,21.90
2018-11-28T06:15:18.710Z,18.33
2018-11-28T06:17:47.417Z,18.63
2018-11-28T06:20:16.334Z,17.20
2018-11-28T06:22:44.992Z,19.67
2018-11-28T06:25:16.127Z,19.87
2018-11-28T06:27:43.246Z,18.93
2018-11-28T06:30:14.798Z,18.17
2018-11-28T06:32:43.264Z,19.60
2018-11-28T06:35:12.083Z,18.90
2018-11-28T06:37:41.025Z,17.80
2018-11-28T06:40:14.738Z,18.00
2018-11-28T06:42:44.021Z,19.07
2018-11-28T06:45:13.762Z,20.57
2018-11-28T06:47:42.257Z,18.60
2018-11-28T06:50:18.061Z,19.27
2018-11-28T06:52:47.746Z,18.13
2018-11-28T06:55:17.494Z,18.60
2018-11-28T06:57:46.020Z,18.97
2018-11-28T07:00:16.515Z,18.90
2018-11-28T07:02:45.231Z,19.57
2018-11-28T07:05:13.850Z,18.07
2018-11-28T07:07:42.430Z,17.30
2018-11-28T07:10:15.170Z,19.00
2018-11-28T07:12:43.647Z,18.00
2018-11-28T07:15:14.075Z,18.83
2018-11-28T07:17:43.074Z,18.07
2018-11-28T07:20:12.715Z,20.60
2018-11-28T07:22:41.289Z,19.20
2018-11-28T07:25:13.780Z,17.17
2018-11-28T07:27:45.069Z,17.90
2018-11-28T07:30:19.346Z,19.80
2018-11-28T07:32:48.538Z,18.70
2018-11-28T07:35:17.103Z,17.90
2018-11-28T07:37:45.592Z,18.80
2018-11-28T07:40:17.382Z,20.10
2018-11-28T07:42:47.999Z,18.20
2018-11-28T07:45:16.666Z,18.23
2018-11-28T07:47:45.147Z,19.60
2018-11-28T07:50:13.715Z,20.47
2018-11-28T07:52:42.241Z,17.80
2018-11-28T07:55:11.748Z,18.47
2018-11-28T07:57:40.607Z,17.40
2018-11-28T08:00:13.519Z,18.77
2018-11-28T08:02:42.687Z,19.33
2018-11-28T08:05:12.058Z,17.77
2018-11-28T08:07:40.619Z,19.77
2018-11-28T08:10:19.643Z,17.97
2018-11-28T08:12:48.424Z,18.57
2018-11-28T08:15:17.001Z,19.80
2018-11-28T08:17:45.587Z,20.40
2018-11-28T08:20:14.208Z,18.40
2018-11-28T08:22:42.727Z,19.47
2018-11-28T08:25:13.454Z,20.07
2018-11-28T08:27:42.977Z,19.40
2018-11-28T08:30:15.538Z,19.23
2018-11-28T08:32:44.023Z,19.40
2018-11-28T08:35:13.299Z,19.13
2018-11-28T08:37:41.823Z,19.87
2018-11-28T08:40:14.783Z,19.60
2018-11-28T08:42:43.481Z,21.83
2018-11-28T08:45:17.271Z,18.90
2018-11-28T08:47:47.117Z,21.50
2018-11-28T08:50:17.155Z,19.80
2018-11-28T08:52:45.698Z,19.33
2018-11-28T08:55:14.554Z,19.93
2018-11-28T08:57:43.175Z,20.10
2018-11-28T09:00:15.067Z,18.60
2018-11-28T09:02:44.065Z,20.23
2018-11-28T09:05:13.568Z,18.07
2018-11-28T09:07:42.232Z,20.23
2018-11-28T09:10:12.246Z,19.97
2018-11-28T09:12:40.868Z,19.10
2018-11-28T09:15:13.475Z,18.17
2018-11-28T09:17:42.178Z,19.13
2018-11-28T09:20:13.875Z,17.87
2018-11-28T09:22:42.548Z,19.20
2018-11-28T09:25:13.990Z,19.17
2018-11-28T09:27:43.359Z,18.80
2018-11-28T09:30:15.022Z,18.43
2018-11-28T09:32:43.595Z,20.10
2018-11-28T09:35:13.067Z,17.90
2018-11-28T09:37:45.597Z,18.30
2018-11-28T09:40:19.344Z,19.30
2018-11-28T09:42:48.371Z,19.60
2018-11-28T09:45:18.002Z,18.53
2018-11-28T09:47:46.596Z,18.53
2018-11-28T09:50:18.864Z,19.80
2018-11-28T09:52:47.449Z,18.03
2018-11-28T09:55:25.496Z,18.30
2018-11-28T09:57:54.115Z,19.93
2018-11-28T10:00:23.852Z,19.10
2018-11-28T10:02:53.363Z,18.33
2018-11-28T10:05:27.551Z,19.80
2018-11-28T10:07:56.070Z,18.10
2018-11-28T10:10:24.590Z,19.30
2018-11-28T10:12:54.082Z,19.43
2018-11-28T10:15:24.606Z,19.73
2018-11-28T10:17:53.199Z,19.63
2018-11-28T10:20:21.791Z,20.30
2018-11-28T10:22:51.440Z,18.70
2018-11-28T10:25:22.843Z,19.60
2018-11-28T10:27:58.398Z,20.20
2018-11-28T10:30:29.140Z,19.00
2018-11-28T10:32:56.798Z,19.27
2018-11-28T10:35:25.358Z,19.33
2018-11-28T10:37:53.820Z,19.67
2018-11-28T10:40:24.139Z,19.60
2018-11-28T10:42:56.673Z,20.37
2018-11-28T10:45:26.258Z,18.50
2018-11-28T10:47:56.399Z,18.97
2018-11-28T10:50:25.126Z,18.17
2018-11-28T10:52:53.700Z,18.57
2018-11-28T10:55:23.219Z,19.87
2018-11-28T10:57:51.943Z,19.80
2018-11-28T11:00:28.019Z,18.73
2018-11-28T11:03:01.909Z,17.30
2018-11-28T11:05:35.826Z,19.00
2018-11-28T11:08:10.097Z,17.57
2018-11-28T11:10:44.011Z,18.17
2018-11-28T11:13:17.970Z,18.40
2018-11-28T11:15:52.943Z,16.63
2018-11-28T11:18:21.579Z,17.77
2018-11-28T11:20:50.089Z,16.30
2018-11-28T11:23:18.687Z,18.50
2018-11-28T11:25:47.235Z,17.53
2018-11-28T11:28:16.015Z,16.60
2018-11-28T11:30:44.792Z,17.13
2018-11-28T11:33:13.398Z,18.10
2018-11-28T11:35:41.952Z,20.43
2018-11-28T11:38:10.607Z,18.23
2018-11-28T11:40:39.183Z,16.50
2018-11-28T11:43:08.187Z,18.00
2018-11-28T11:45:36.742Z,17.13
2018-11-28T11:48:05.771Z,15.53
2018-11-28T11:50:34.496Z,14.60
2018-11-28T11:53:04.165Z,15.37
2018-11-28T11:55:33.002Z,14.90
2018-11-28T11:58:01.596Z,14.30
2018-11-28T12:00:30.278Z,13.20
2018-11-28T12:03:05.604Z,13.80
2018-11-28T12:05:34.128Z,13.80
2018-11-28T12:08:02.709Z,13.67
2018-11-28T12:10:31.244Z,13.67
2018-11-28T12:12:59.733Z,14.63
2018-11-28T12:15:28.353Z,13.50
2018-11-28T12:17:56.869Z,14.10
2018-11-28T12:20:28.089Z,14.53
2018-11-28T12:22:56.675Z,13.80
2018-11-28T12:25:25.232Z,14.40
2018-11-28T12:27:54.017Z,13.80
2018-11-28T12:30:22.619Z,12.80
2018-11-28T12:32:52.246Z,13.50
2018-11-28T12:35:20.916Z,13.90
2018-11-28T12:37:49.538Z,12.83
2018-11-28T12:40:18.160Z,13.63
2018-11-28T12:42:50.300Z,14.30
2018-11-28T12:45:19.709Z,13.37
2018-11-28T12:47:48.683Z,15.50
2018-11-28T12:50:22.308Z,13.77
2018-11-28T12:52:51.404Z,13.97
2018-11-28T12:55:20.490Z,13.33
2018-11-28T12:57:49.154Z,13.13
2018-11-28T13:00:21.105Z,12.00
2018-11-28T13:02:49.858Z,12.67
2018-11-28T13:05:19.713Z,13.10
2018-11-28T13:07:48.460Z,14.57
2018-11-28T13:10:30.177Z,12.70
2018-11-28T13:12:59.765Z,11.90
2018-11-28T13:15:28.374Z,12.90
2018-11-28T13:17:56.891Z,13.90
2018-11-28T13:20:25.421Z,13.57
2018-11-28T13:22:55.101Z,12.30
2018-11-28T13:25:26.982Z,13.40
2018-11-28T13:27:55.806Z,13.00
2018-11-28T13:30:25.627Z,12.90
2018-11-28T13:32:55.296Z,13.37
2018-11-28T13:35:25.127Z,13.10
2018-11-28T13:37:55.146Z,12.00
2018-11-28T13:40:24.716Z,12.33
2018-11-28T13:42:53.300Z,12.73
2018-11-28T13:45:25.094Z,12.17
2018-11-28T13:47:54.519Z,11.27
2018-11-28T13:50:23.203Z,12.80
2018-11-28T13:52:52.541Z,11.47
2018-11-28T13:55:38.429Z,12.50
2018-11-28T13:58:01.921Z,10.93
2018-11-28T14:00:30.866Z,12.33
2018-11-28T14:02:59.478Z,11.73
2018-11-28T14:05:27.979Z,12.10
2018-11-28T14:07:57.026Z,11.80
2018-11-28T14:10:25.579Z,12.73
2018-11-28T14:12:54.139Z,12.63
2018-11-28T14:15:23.482Z,12.67
2018-11-28T14:18:02.972Z,11.50
2018-11-28T14:20:32.031Z,12.33
2018-11-28T14:23:01.944Z,11.93
2018-11-28T14:25:31.680Z,10.77
2018-11-28T14:28:00.295Z,12.60
2018-11-28T14:30:29.560Z,10.97
2018-11-28T14:32:58.454Z,12.33
2018-11-28T14:35:26.930Z,12.10
2018-11-28T14:37:55.436Z,11.70
2018-11-28T14:40:24.766Z,11.33
2018-11-28T14:42:58.478Z,11.93
2018-11-28T14:45:27.989Z,12.37
2018-11-28T14:47:56.586Z,11.60
2018-11-28T14:50:26.442Z,13.67
2018-11-28T14:52:57.270Z,11.50
2018-11-28T14:55:29.007Z,12.47
2018-11-28T14:57:57.948Z,12.70
2018-11-28T15:00:30.598Z,12.43
2018-11-28T15:03:20.129Z,12.33
2018-11-28T15:05:59.114Z,13.40
2018-11-28T15:08:27.850Z,13.67
2018-11-28T15:11:07.424Z,13.30
2018-11-28T15:13:35.915Z,13.50
2018-11-28T15:16:04.507Z,13.90
2018-11-28T15:18:32.978Z,13.10
2018-11-28T15:21:01.487Z,13.93
2018-11-28T15:23:30.155Z,13.90
2018-11-28T15:25:58.746Z,14.13
2018-11-28T15:28:28.325Z,13.90
2018-11-28T15:30:56.948Z,14.80
2018-11-28T15:33:25.634Z,14.03
2018-11-28T15:35:54.281Z,14.20
2018-11-28T15:38:22.820Z,15.50
2018-11-28T15:40:52.554Z,15.40
2018-11-28T15:43:22.152Z,14.00
2018-11-28T15:45:50.814Z,14.13
2018-11-28T15:48:19.383Z,14.93
2018-11-28T15:50:48.050Z,14.50
2018-11-28T15:53:16.587Z,15.87
2018-11-28T15:55:46.728Z,15.73
2018-11-28T15:58:15.444Z,15.50
2018-11-28T16:00:44.061Z,15.70
2018-11-28T16:03:13.915Z,15.73
2018-11-28T16:05:43.069Z,14.80
2018-11-28T16:08:12.303Z,19.97
2018-11-28T16:10:44.006Z,16.40
2018-11-28T16:13:15.251Z,15.43
2018-11-28T16:15:46.210Z,16.10
2018-11-28T16:18:15.439Z,18.40
2018-11-28T16:20:44.919Z,17.50
2018-11-28T16:23:14.725Z,17.40
2018-11-28T16:25:44.578Z,17.80
2018-11-28T16:28:14.193Z,17.37
2018-11-28T16:30:42.878Z,19.00
2018-11-28T16:33:11.629Z,16.40
2018-11-28T16:35:40.171Z,18.47
2018-11-28T16:38:08.785Z,19.90
2018-11-28T16:40:37.725Z,17.63
2018-11-28T16:43:07.958Z,18.53
2018-11-28T16:45:36.902Z,18.20
2018-11-28T16:48:05.711Z,19.73
2018-11-28T16:50:35.454Z,20.90
2018-11-28T16:53:04.816Z,19.73
2018-11-28T16:55:34.482Z,18.90
2018-11-28T16:58:03.237Z,20.40
2018-11-28T17:00:33.611Z,19.50
2018-11-28T17:03:02.242Z,19.60
2018-11-28T17:05:30.834Z,20.83
2018-11-28T17:07:59.831Z,21.27
2018-11-28T17:10:30.247Z,21.20
2018-11-28T17:12:59.606Z,23.33
2018-11-28T17:15:32.590Z,21.40
2018-11-28T17:18:01.255Z,20.43
2018-11-28T17:20:30.630Z,20.80
2018-11-28T17:23:01.455Z,21.53
2018-11-28T17:25:31.236Z,21.47
2018-11-28T17:28:00.741Z,21.80
2018-11-28T17:30:31.380Z,21.70
2018-11-28T17:33:00.664Z,19.70
2018-11-28T17:35:29.371Z,23.10
2018-11-28T17:37:58.546Z,21.67
2018-11-28T17:40:29.287Z,22.00
2018-11-28T17:43:00.421Z,23.93
2018-11-28T17:45:30.584Z,22.57
2018-11-28T17:47:59.359Z,21.47
2018-11-28T17:50:28.465Z,21.47
2018-11-28T17:53:14.507Z,21.37
2018-11-28T17:55:46.511Z,22.37
2018-11-28T17:58:15.130Z,21.70
2018-11-28T18:00:43.735Z,21.77
2018-11-28T18:03:12.360Z,19.10
2018-11-28T18:05:41.825Z,20.63
2018-11-28T18:08:10.506Z,20.40
2018-11-28T18:10:39.035Z,21.33
2018-11-28T18:13:13.516Z,19.80
2018-11-28T18:15:45.304Z,18.27
2018-11-28T18:18:15.506Z,17.80
2018-11-28T18:20:44.090Z,18.97
2018-11-28T18:23:12.856Z,19.37
2018-11-28T18:25:43.482Z,16.53
2018-11-28T18:28:14.063Z,17.47
2018-11-28T18:30:42.594Z,16.20
2018-11-28T18:33:12.785Z,16.40
2018-11-28T18:35:41.365Z,17.50
2018-11-28T18:38:09.948Z,17.03
2018-11-28T18:40:39.465Z,17.33
2018-11-28T18:43:09.022Z,16.67
2018-11-28T18:45:40.390Z,16.10
2018-11-28T18:48:09.917Z,15.37
2018-11-28T18:50:38.871Z,17.52
2018-11-28T18:53:07.906Z,16.50
2018-11-28T18:55:36.503Z,15.60
2018-11-28T18:58:05.239Z,14.53
2018-11-28T19:00:33.891Z,16.20
2018-11-28T19:03:03.415Z,15.63
2018-11-28T19:05:31.973Z,14.77
2018-11-28T19:08:00.515Z,14.50
2018-11-28T19:10:29.025Z,14.80
2018-11-28T19:12:58.099Z,13.70
2018-11-28T19:15:27.691Z,13.63
2018-11-28T19:17:57.228Z,15.10
2018-11-28T19:20:25.928Z,15.07
2018-11-28T19:22:55.568Z,13.30
2018-11-28T19:25:25.213Z,12.73
2018-11-28T19:27:53.777Z,12.63
2018-11-28T19:30:30.964Z,12.70
2018-11-28T19:32:54.752Z,12.50
2018-11-28T19:35:23.824Z,12.13
2018-11-28T19:37:52.254Z,11.80
2018-11-28T19:40:56.484Z,12.10
2018-11-28T19:43:25.360Z,12.20
2018-11-28T19:45:55.049Z,11.60
2018-11-28T19:48:23.604Z,11.73
2018-11-28T19:50:52.223Z,11.87
2018-11-28T19:53:21.093Z,13.17
2018-11-28T19:55:49.761Z,11.30
2018-11-28T19:58:18.442Z,11.63
2018-11-28T20:00:47.483Z,12.83
2018-11-28T20:03:16.043Z,11.73
2018-11-28T20:05:45.526Z,16.47
2018-11-28T20:08:14.173Z,12.13
2018-11-28T20:10:42.837Z,11.40
2018-11-28T20:13:11.586Z,12.60
2018-11-28T20:15:42.403Z,12.80
2018-11-28T20:18:10.976Z,11.97
2018-11-28T20:20:39.642Z,13.20
2018-11-28T20:23:08.619Z,12.37
2018-11-28T20:25:37.428Z,12.03
2018-11-28T20:28:07.264Z,14.10
2018-11-28T20:30:37.866Z,13.73
2018-11-28T20:33:07.181Z,12.47
2018-11-28T20:35:35.747Z,12.37
2018-11-28T20:38:04.395Z,11.40
2018-11-28T20:40:32.990Z,13.13
2018-11-28T20:43:01.847Z,12.30
2018-11-28T20:45:31.403Z,12.77
2018-11-28T20:47:59.943Z,11.33
2018-11-28T20:50:30.178Z,11.87
2018-11-28T20:53:01.558Z,10.80
2018-11-28T20:55:30.075Z,12.70
2018-11-28T20:57:58.820Z,10.73
2018-11-28T21:00:27.436Z,11.30
2018-11-28T21:02:57.165Z,10.83
2018-11-28T21:05:25.786Z,11.27
2018-11-28T21:07:55.350Z,10.70
2018-11-28T21:10:29.472Z,11.20
2018-11-28T21:12:59.274Z,11.07
2018-11-28T21:15:27.649Z,12.40
2018-11-28T21:17:56.261Z,17.00
2018-11-28T21:20:24.850Z,14.83
2018-11-28T21:22:56.543Z,12.37
2018-11-28T21:25:25.062Z,9.47
2018-11-28T21:27:53.723Z,10.60
2018-11-28T21:30:22.363Z,10.37
2018-11-28T21:32:52.975Z,11.00
2018-11-28T21:35:38.015Z,10.33
2018-11-28T21:38:07.387Z,10.70
2018-11-28T21:40:36.175Z,10.40
2018-11-28T21:43:05.070Z,9.70
2018-11-28T21:45:33.750Z,9.93
2018-11-28T21:48:02.262Z,8.70
2018-11-28T21:50:30.784Z,10.10
2018-11-28T21:52:59.572Z,10.03
2018-11-28T21:55:29.755Z,11.47
2018-11-28T21:57:58.226Z,9.50
2018-11-28T22:00:27.244Z,10.40
2018-11-28T22:02:55.951Z,9.77
2018-11-28T22:05:25.203Z,9.63
2018-11-28T22:07:53.693Z,8.60
2018-11-28T22:10:23.291Z,10.17
2018-11-28T22:12:52.327Z,8.23
2018-11-28T22:15:20.987Z,9.83
2018-11-28T22:17:52.578Z,8.80
2018-11-28T22:20:21.211Z,8.27
2018-11-28T22:22:49.774Z,8.10
2018-11-28T22:25:21.120Z,8.40
2018-11-28T22:27:49.658Z,9.23
2018-11-28T22:30:19.599Z,9.13
2018-11-28T22:32:48.262Z,9.37
2018-11-28T22:35:17.057Z,8.40
2018-11-28T22:37:45.668Z,8.97
2018-11-28T22:40:18.482Z,8.80
2018-11-28T22:42:47.074Z,7.63
2018-11-28T22:45:17.939Z,7.77
2018-11-28T22:47:46.479Z,7.90
2018-11-28T22:50:15.314Z,8.00
2018-11-28T22:52:43.973Z,7.67
2018-11-28T22:55:13.457Z,8.03
2018-11-28T22:57:42.130Z,7.10
2018-11-28T23:00:17.125Z,7.10
2018-11-28T23:02:56.635Z,8.03
2018-11-28T23:05:30.539Z,7.93
2018-11-28T23:08:00.187Z,6.50
2018-11-28T23:10:29.063Z,6.47
2018-11-28T23:12:57.542Z,7.40
2018-11-28T23:15:26.443Z,6.73
2018-11-28T23:17:55.548Z,6.07
2018-11-28T23:20:23.676Z,6.27
2018-11-28T23:22:52.172Z,6.40
2018-11-28T23:25:20.696Z,6.30
2018-11-28T23:27:49.346Z,7.03
2018-11-28T23:30:20.050Z,5.93
2018-11-28T23:32:49.321Z,6.63
2018-11-28T23:35:18.440Z,6.77
2018-11-28T23:37:48.052Z,7.13
2018-11-28T23:40:19.938Z,6.47
2018-11-28T23:42:48.683Z,6.00
2018-11-28T23:45:18.533Z,6.00
2018-11-28T23:47:47.302Z,6.37
2018-11-28T23:50:21.883Z,5.70
2018-11-28T23:52:51.533Z,5.90
2018-11-28T23:55:21.962Z,6.60
2018-11-28T23:57:50.477Z,5.80
